Nearby METAR Reports

 

KOWX - Ottawa/Putnam Cnty, Ohio, USA
Distance from station: NE 13mi, 22km
Updated: 06/12/2024 12:55pm
Clear
Clear
 Wind from WSW
Wind: WSW 7 mph, 11 km/h, Gust: 17 mph, 28 km/h
Temperature: 82°F, 28°C
Dew Point: 32°F, 0°C
Humidity: 16%
Barometer: 30.80 inHg, 1043 hPa
Clouds: Clear
Visibility: 10 miles, 16 km
2024/06/12 16:55 KOWX 121655Z AUTO 25006G15KT 10SM CLR 28/00 A3080 RMK AO1
KAOH - Lima/Allen Cnty, Ohio, USA
Distance from station: SSE 14mi, 22km
Updated: 06/12/2024 12:53pm
Clear
Clear
 Wind from SW
Wind: SW 10 mph, 17 km/h
Temperature: 79°F, 26°C
Dew Point: 52°F, 11°C
Humidity: 39%
Barometer: 30.02 inHg, 1016.6 hPa
Clouds: Clear
Visibility: 10 miles, 16 km
2024/06/12 16:53 KAOH 121653Z AUTO 22009KT 10SM CLR 26/11 A3002 RMK AO2 SLP160 T02610106
KVNW - Van Wert Cnty Arpt, Ohio, USA
Distance from station: W 24mi, 39km
Updated: 06/12/2024 1:35pm
Clear
Clear
 Wind from SW
Wind: SW 7 mph, 11 km/h
Temperature: 82°F, 28°C
Dew Point: 41°F, 5°C
Humidity: 23%
Barometer: 30.01 inHg, 1016.3 hPa
Clouds: Clear
Visibility: 10 miles, 16 km
2024/06/12 17:35 KVNW 121735Z AUTO 23006KT 10SM CLR 28/05 A3001 RMK AO2
 
KFDY - Findlay Arpt, Ohio, USA
Distance from station: ENE 27mi, 43km
Updated: 06/12/2024 12:53pm
Clear
Clear
 Wind from SW
Wind: SW 10 mph, 17 km/h, Gust: 20 mph, 31 km/h
Temperature: 82°F, 28°C
Dew Point: 50°F, 10°C
Humidity: 32%
Barometer: 30.00 inHg, 1015.9 hPa
Clouds: Clear
Visibility: 10 miles, 16 km
2024/06/12 16:53 KFDY 121653Z AUTO 22009G17KT 10SM CLR 28/10 A3000 RMK AO2 SLP152 T02780100
KAXV - Wapakoneta/Armstrong Arpt, Ohio, USA
Distance from station: SSW 28mi, 45km
Updated: 06/12/2024 1:15pm
Clear
Clear
 Wind from WSW
Wind: WSW 6 mph, 9 km/h
Temperature: 79°F, 26°C
Dew Point: 45°F, 7°C
Humidity: 30%
Barometer: 30.02 inHg, 1016.6 hPa
Clouds: Clear
Visibility: 10 miles, 16 km
2024/06/12 17:15 KAXV 121715Z AUTO 25005KT 10SM CLR 26/07 A3002 RMK AO2
KI95 - Kenton/Hardin Cnty, Ohio, USA
Distance from station: SE 32mi, 52km
Updated: 06/12/2024 1:15pm
Clear
Clear
 Wind from varies
Wind: varies 7 mph, 11 km/h
Temperature: 79°F, 26°C
Dew Point: 45°F, 7°C
Humidity: 30%
Barometer: 30.01 inHg, 1016.3 hPa
Clouds: Clear
Visibility: 10 miles, 16 km
2024/06/12 17:15 KI95 121715Z AUTO VRB06KT 10SM CLR 26/07 A3001 RMK A01
 
KDFI - Defiance Mem Arpt, Ohio, USA
Distance from station: NNW 35mi, 56km
Updated: 06/12/2024 12:53pm
Partly cloudy
Partly cloudy
 Wind from SW
Wind: SW 7 mph, 11 km/h
Temperature: 81°F, 27°C
Dew Point: 46°F, 8°C
Humidity: 30%
Barometer: 29.99 inHg, 1015.6 hPa
Clouds: Partly cloudy
Visibility: 10 miles, 16 km
Cloud details: Partly cloudy 11000 ft
2024/06/12 16:53 KDFI 121653Z AUTO 22006KT 10SM SCT110 27/08 A2999 RMK AO2 SLP150 T02670083
KEDJ - Bellefontaine Rgnl, Ohio, USA
Distance from station: SSE 39mi, 63km
Updated: 06/12/2024 1:15pm
Clear
Clear
 Wind from varies
Wind: varies 3 mph, 6 km/h, Gust: 12 mph, 19 km/h
Temperature: 77°F, 25°C
Dew Point: 28°F, -2°C
Humidity: 17%
Barometer: 30.05 inHg, 1017.6 hPa
Clouds: Clear
Visibility: 10 miles, 16 km
2024/06/12 17:15 KEDJ 121715Z AUTO VRB03G10KT 10SM CLR 25/M02 A3005 RMK A01
KUSE - Wauseon/Fulton Cnty, Ohio, USA
Distance from station: N 50mi, 81km
Updated: 06/12/2024 1:15pm
Mostly cloudy
Mostly cloudy
 Wind from SW
Wind: SW 10 mph, 17 km/h
Temperature: 79°F, 26°C
Dew Point: 46°F, 8°C
Humidity: 32%
Barometer: 29.98 inHg, 1015.2 hPa
Clouds: Mostly cloudy
Visibility: 10 miles, 16 km
Cloud details: Mostly cloudy 10000 ft
2024/06/12 17:15 KUSE 121715Z AUTO 23009KT 10SM BKN100 26/08 A2998 RMK AO2
cardcarrying-quotidian
cardcarrying-quotidian
cardcarrying-quotidian
cardcarrying-quotidian